Wetterdaten: Woche 27.03.17 - 02.04.17 (KW13)
Datum Zeit Temperatur Luftfeuchte Luftdruck Niederschlag Windrichtung Sonnenschein Solar Wind
27.03.2017 00:00 4,3 C 66 % 1022,0 hPa 0,0 l/m O 0,00 h 0 W/m 2,8 km/h (1 Bft)
27.03.2017 01:00 3,5 C 67 % 1021,8 hPa 0,0 l/m O-NO 0,00 h 0 W/m 6,0 km/h (2 Bft)
27.03.2017 02:00 3,0 C 67 % 1021,4 hPa 0,0 l/m O-NO 0,00 h 0 W/m 5,3 km/h (1 Bft)
27.03.2017 03:00 2,7 C 67 % 1021,0 hPa 0,0 l/m N-NO 0,00 h 0 W/m 7,1 km/h (2 Bft)
27.03.2017 04:00 2,0 C 69 % 1020,9 hPa 0,0 l/m NO 0,00 h 0 W/m 7,9 km/h (2 Bft)
27.03.2017 05:00 2,0 C 69 % 1020,9 hPa 0,0 l/m NO 0,00 h 0 W/m 8,4 km/h (2 Bft)
27.03.2017 06:00 1,4 C 71 % 1021,0 hPa 0,0 l/m O-NO 0,00 h 0 W/m 6,5 km/h (2 Bft)
27.03.2017 07:00 1,3 C 71 % 1021,1 hPa 0,0 l/m O-NO 0,67 h 33 W/m 8,8 km/h (2 Bft)
27.03.2017 08:00 2,0 C 71 % 1021,5 hPa 0,0 l/m N-NO 0,75 h 147 W/m 9,3 km/h (2 Bft)
27.03.2017 09:00 3,4 C 69 % 1021,7 hPa 0,0 l/m NO 1,00 h 378 W/m 11,0 km/h (2 Bft)
27.03.2017 10:00 6,0 C 64 % 1021,7 hPa 0,0 l/m NO 1,00 h 529 W/m 11,6 km/h (2 Bft)
27.03.2017 11:00 9,1 C 59 % 1021,5 hPa 0,0 l/m NO 0,92 h 584 W/m 10,7 km/h (2 Bft)
27.03.2017 12:00 11,7 C 53 % 1021,5 hPa 0,0 l/m O-NO 1,00 h 707 W/m 13,7 km/h (3 Bft)
27.03.2017 13:00 13,5 C 49 % 1021,3 hPa 0,0 l/m NO 1,00 h 718 W/m 12,6 km/h (3 Bft)
27.03.2017 14:00 15,0 C 44 % 1021,2 hPa 0,0 l/m O 1,00 h 677 W/m 14,9 km/h (3 Bft)
27.03.2017 15:00 15,7 C 42 % 1020,8 hPa 0,0 l/m N-NO 1,00 h 589 W/m 12,0 km/h (2 Bft)
27.03.2017 16:00 16,2 C 43 % 1020,3 hPa 0,0 l/m NO 1,00 h 457 W/m 11,9 km/h (2 Bft)
27.03.2017 17:00 16,3 C 42 % 1020,0 hPa 0,0 l/m O-NO 1,00 h 295 W/m 9,5 km/h (2 Bft)
27.03.2017 18:00 15,6 C 44 % 1020,1 hPa 0,0 l/m O-NO 0,33 h 100 W/m 8,3 km/h (2 Bft)
27.03.2017 19:00 13,4 C 51 % 1020,4 hPa 0,0 l/m O-NO 0,00 h 15 W/m 2,3 km/h (1 Bft)
27.03.2017 20:00 10,2 C 63 % 1020,8 hPa 0,0 l/m N 0,00 h 0 W/m 0,0 km/h (0 Bft)
27.03.2017 21:00 8,3 C 69 % 1021,1 hPa 0,0 l/m N 0,00 h 0 W/m 0,5 km/h (0 Bft)
27.03.2017 22:00 7,3 C 70 % 1021,3 hPa 0,0 l/m N 0,00 h 0 W/m 0,1 km/h (0 Bft)
27.03.2017 23:00 6,3 C 72 % 1021,3 hPa 0,0 l/m N 0,00 h 0 W/m 0,4 km/h (0 Bft)
28.03.2017 00:00 5,2 C 75 % 1021,3 hPa 0,0 l/m N 0,00 h 0 W/m 0,0 km/h (0 Bft)
28.03.2017 01:00 3,9 C 79 % 1021,4 hPa 0,0 l/m N 0,00 h 0 W/m 0,0 km/h (0 Bft)
28.03.2017 02:00 2,6 C 84 % 1021,5 hPa 0,0 l/m N 0,00 h 0 W/m 0,0 km/h (0 Bft)
28.03.2017 03:00 1,6 C 88 % 1021,6 hPa 0,0 l/m N 0,00 h 0 W/m 0,0 km/h (0 Bft)
28.03.2017 04:00 1,2 C 89 % 1021,7 hPa 0,0 l/m N 0,00 h 0 W/m 0,0 km/h (0 Bft)
28.03.2017 05:00 0,3 C 90 % 1022,0 hPa 0,0 l/m N 0,00 h 0 W/m 0,0 km/h (0 Bft)
28.03.2017 06:00 -0,2 C 92 % 1022,1 hPa 0,0 l/m N 0,00 h 0 W/m 0,0 km/h (0 Bft)
28.03.2017 07:00 -0,4 C 93 % 1022,6 hPa 0,0 l/m N 0,67 h 34 W/m 0,0 km/h (0 Bft)
28.03.2017 08:00 0,9 C 93 % 1023,1 hPa 0,0 l/m N 0,67 h 139 W/m 0,0 km/h (0 Bft)
28.03.2017 09:00 5,7 C 87 % 1023,4 hPa 0,0 l/m O-NO 1,00 h 357 W/m 4,0 km/h (1 Bft)
28.03.2017 10:00 10,6 C 76 % 1023,5 hPa 0,0 l/m S-SW 1,00 h 505 W/m 10,9 km/h (2 Bft)
28.03.2017 11:00 13,6 C 67 % 1023,5 hPa 0,0 l/m S 1,00 h 609 W/m 12,0 km/h (2 Bft)
28.03.2017 12:00 15,8 C 60 % 1023,2 hPa 0,0 l/m S-SW 1,00 h 684 W/m 9,7 km/h (2 Bft)
28.03.2017 13:00 17,6 C 52 % 1022,7 hPa 0,0 l/m S-SO 1,00 h 698 W/m 10,7 km/h (2 Bft)
28.03.2017 14:00 18,2 C 49 % 1022,0 hPa 0,0 l/m S 0,83 h 582 W/m 11,3 km/h (2 Bft)
28.03.2017 15:00 18,3 C 50 % 1021,6 hPa 0,0 l/m W-SW 0,75 h 485 W/m 13,2 km/h (3 Bft)
28.03.2017 16:00 18,4 C 48 % 1021,4 hPa 0,0 l/m SW 0,50 h 315 W/m 15,7 km/h (3 Bft)
28.03.2017 17:00 17,8 C 48 % 1021,3 hPa 0,0 l/m SW 0,58 h 193 W/m 11,7 km/h (2 Bft)
28.03.2017 18:00 17,2 C 47 % 1021,5 hPa 0,0 l/m W-SW 0,17 h 95 W/m 12,9 km/h (3 Bft)
28.03.2017 19:00 15,5 C 51 % 1021,9 hPa 0,0 l/m W-SW 0,00 h 22 W/m 7,5 km/h (2 Bft)
28.03.2017 20:00 13,5 C 57 % 1022,6 hPa 0,0 l/m W-SW 0,00 h 0 W/m 5,3 km/h (1 Bft)
28.03.2017 21:00 10,9 C 68 % 1023,0 hPa 0,0 l/m N 0,00 h 0 W/m 0,9 km/h (0 Bft)
28.03.2017 22:00 9,2 C 75 % 1023,3 hPa 0,0 l/m N 0,00 h 0 W/m 0,0 km/h (0 Bft)
28.03.2017 23:00 8,0 C 80 % 1023,7 hPa 0,0 l/m N 0,00 h 0 W/m 0,0 km/h (0 Bft)
29.03.2017 00:00 7,3 C 82 % 1024,3 hPa 0,0 l/m N 0,00 h 0 W/m 0,0 km/h (0 Bft)
29.03.2017 01:00 6,5 C 85 % 1024,8 hPa 0,0 l/m N 0,00 h 0 W/m 0,0 km/h (0 Bft)
29.03.2017 02:00 5,6 C 87 % 1025,0 hPa 0,0 l/m N 0,00 h 0 W/m 0,0 km/h (0 Bft)
29.03.2017 03:00 4,9 C 90 % 1025,1 hPa 0,0 l/m N 0,00 h 0 W/m 0,0 km/h (0 Bft)
29.03.2017 04:00 4,3 C 91 % 1025,2 hPa 0,0 l/m N 0,00 h 0 W/m 0,0 km/h (0 Bft)
29.03.2017 05:00 3,7 C 92 % 1025,4 hPa 0,0 l/m N 0,00 h 0 W/m 0,0 km/h (0 Bft)
29.03.2017 06:00 3,3 C 94 % 1025,5 hPa 0,0 l/m N 0,00 h 0 W/m 0,0 km/h (0 Bft)
29.03.2017 07:00 3,6 C 94 % 1025,9 hPa 0,0 l/m N 0,00 h 23 W/m 0,0 km/h (0 Bft)
29.03.2017 08:00 5,2 C 92 % 1026,3 hPa 0,0 l/m N 0,17 h 93 W/m 0,0 km/h (0 Bft)
29.03.2017 09:00 7,4 C 88 % 1026,4 hPa 0,0 l/m N 0,50 h 265 W/m 0,4 km/h (0 Bft)
29.03.2017 10:00 11,8 C 76 % 1026,5 hPa 0,0 l/m W-SW 0,83 h 440 W/m 2,0 km/h (1 Bft)
29.03.2017 11:00 14,7 C 67 % 1026,3 hPa 0,0 l/m W-SW 0,92 h 544 W/m 4,4 km/h (1 Bft)
29.03.2017 12:00 16,3 C 62 % 1025,9 hPa 0,0 l/m SW 1,00 h 739 W/m 12,3 km/h (3 Bft)
29.03.2017 13:00 17,1 C 57 % 1025,2 hPa 0,0 l/m W-SW 0,92 h 718 W/m 17,2 km/h (3 Bft)
29.03.2017 14:00 17,5 C 52 % 1024,6 hPa 0,0 l/m SW 0,58 h 487 W/m 14,1 km/h (3 Bft)
29.03.2017 15:00 17,5 C 49 % 1024,1 hPa 0,0 l/m W-SW 0,58 h 462 W/m 10,1 km/h (2 Bft)
29.03.2017 16:00 18,6 C 44 % 1023,4 hPa 0,0 l/m W 1,00 h 455 W/m 15,2 km/h (3 Bft)
29.03.2017 17:00 18,4 C 45 % 1023,0 hPa 0,0 l/m W 0,92 h 265 W/m 10,7 km/h (2 Bft)
29.03.2017 18:00 17,8 C 46 % 1022,9 hPa 0,0 l/m W 0,25 h 105 W/m 6,4 km/h (2 Bft)
29.03.2017 19:00 15,2 C 56 % 1023,3 hPa 0,0 l/m N 0,08 h 22 W/m 0,0 km/h (0 Bft)
29.03.2017 20:00 12,4 C 66 % 1024,1 hPa 0,0 l/m N 0,00 h 0 W/m 0,0 km/h (0 Bft)
29.03.2017 21:00 10,1 C 73 % 1024,8 hPa 0,0 l/m N 0,00 h 0 W/m 0,0 km/h (0 Bft)
29.03.2017 22:00 9,0 C 74 % 1025,3 hPa 0,0 l/m W 0,00 h 0 W/m 0,7 km/h (0 Bft)
29.03.2017 23:00 8,7 C 74 % 1025,7 hPa 0,0 l/m W 0,00 h 0 W/m 0,8 km/h (0 Bft)
30.03.2017 00:00 7,1 C 80 % 1025,9 hPa 0,0 l/m N 0,00 h 0 W/m 0,0 km/h (0 Bft)
30.03.2017 01:00 6,1 C 84 % 1026,1 hPa 0,0 l/m N 0,00 h 0 W/m 0,0 km/h (0 Bft)
30.03.2017 02:00 5,6 C 86 % 1026,1 hPa 0,0 l/m N 0,00 h 0 W/m 0,0 km/h (0 Bft)
30.03.2017 03:00 5,0 C 87 % 1026,0 hPa 0,0 l/m N 0,00 h 0 W/m 0,0 km/h (0 Bft)
30.03.2017 04:00 4,7 C 89 % 1025,9 hPa 0,0 l/m N 0,00 h 0 W/m 0,1 km/h (0 Bft)
30.03.2017 05:00 3,9 C 90 % 1025,9 hPa 0,0 l/m N 0,00 h 0 W/m 0,0 km/h (0 Bft)
30.03.2017 06:00 3,5 C 92 % 1025,7 hPa 0,0 l/m N 0,00 h 0 W/m 0,7 km/h (0 Bft)
30.03.2017 07:00 3,7 C 92 % 1025,6 hPa 0,0 l/m N 0,08 h 32 W/m 0,0 km/h (0 Bft)
30.03.2017 08:00 5,7 C 90 % 1025,8 hPa 0,0 l/m N 0,58 h 142 W/m 1,1 km/h (0 Bft)
30.03.2017 09:00 8,6 C 81 % 1025,7 hPa 0,0 l/m N 1,00 h 279 W/m 0,9 km/h (0 Bft)
30.03.2017 10:00 12,3 C 72 % 1025,6 hPa 0,0 l/m W 1,00 h 489 W/m 6,8 km/h (2 Bft)
30.03.2017 11:00 15,0 C 62 % 1025,3 hPa 0,0 l/m O-SO 0,92 h 564 W/m 12,2 km/h (2 Bft)
30.03.2017 12:00 16,6 C 56 % 1024,8 hPa 0,0 l/m O-NO 1,00 h 656 W/m 11,5 km/h (2 Bft)
30.03.2017 13:00 17,6 C 52 % 1024,3 hPa 0,0 l/m NO 1,00 h 693 W/m 12,2 km/h (2 Bft)
30.03.2017 14:00 18,7 C 49 % 1023,7 hPa 0,0 l/m O-NO 1,00 h 668 W/m 12,9 km/h (3 Bft)
30.03.2017 15:00 19,5 C 48 % 1022,8 hPa 0,0 l/m O 1,00 h 581 W/m 13,3 km/h (3 Bft)
30.03.2017 16:00 19,8 C 47 % 1022,2 hPa 0,0 l/m O-SO 0,92 h 396 W/m 11,4 km/h (2 Bft)
30.03.2017 17:00 19,6 C 44 % 1021,7 hPa 0,0 l/m O-SO 1,00 h 275 W/m 4,7 km/h (1 Bft)
30.03.2017 18:00 19,3 C 46 % 1021,4 hPa 0,0 l/m O-SO 0,50 h 119 W/m 5,5 km/h (1 Bft)
30.03.2017 19:00 17,5 C 52 % 1021,5 hPa 0,0 l/m N 0,25 h 27 W/m 2,0 km/h (1 Bft)
30.03.2017 20:00 13,8 C 66 % 1021,8 hPa 0,0 l/m N 0,00 h 0 W/m 0,0 km/h (0 Bft)
30.03.2017 21:00 11,7 C 73 % 1021,9 hPa 0,0 l/m N 0,00 h 0 W/m 0,0 km/h (0 Bft)
30.03.2017 22:00 10,6 C 77 % 1021,7 hPa 0,0 l/m N 0,00 h 0 W/m 0,3 km/h (0 Bft)
30.03.2017 23:00 10,4 C 77 % 1021,4 hPa 0,0 l/m N 0,00 h 0 W/m 0,4 km/h (0 Bft)
31.03.2017 00:00 9,2 C 81 % 1020,9 hPa 0,0 l/m N 0,00 h 0 W/m 0,0 km/h (0 Bft)
31.03.2017 01:00 8,0 C 85 % 1020,6 hPa 0,0 l/m N 0,00 h 0 W/m 0,0 km/h (0 Bft)
31.03.2017 02:00 6,8 C 88 % 1020,2 hPa 0,0 l/m N 0,00 h 0 W/m 0,0 km/h (0 Bft)
31.03.2017 03:00 6,0 C 90 % 1019,7 hPa 0,0 l/m N 0,00 h 0 W/m 0,0 km/h (0 Bft)
31.03.2017 04:00 5,0 C 92 % 1019,4 hPa 0,0 l/m N 0,00 h 0 W/m 0,0 km/h (0 Bft)
31.03.2017 05:00 4,5 C 93 % 1019,1 hPa 0,0 l/m N 0,00 h 0 W/m 0,0 km/h (0 Bft)
31.03.2017 06:00 3,8 C 94 % 1018,9 hPa 0,0 l/m N 0,00 h 0 W/m 0,0 km/h (0 Bft)
31.03.2017 07:00 3,6 C 94 % 1018,8 hPa 0,0 l/m N 0,58 h 42 W/m 0,0 km/h (0 Bft)
31.03.2017 08:00 5,0 C 93 % 1018,9 hPa 0,0 l/m N 0,67 h 143 W/m 0,0 km/h (0 Bft)
31.03.2017 09:00 9,0 C 87 % 1018,6 hPa 0,0 l/m N 1,00 h 387 W/m 0,0 km/h (0 Bft)
31.03.2017 10:00 14,1 C 68 % 1018,4 hPa 0,0 l/m O-SO 1,00 h 538 W/m 6,4 km/h (2 Bft)
31.03.2017 11:00 17,5 C 55 % 1017,8 hPa 0,0 l/m S 0,92 h 600 W/m 8,0 km/h (2 Bft)
31.03.2017 12:00 19,9 C 45 % 1017,0 hPa 0,0 l/m S 1,00 h 719 W/m 9,4 km/h (2 Bft)
31.03.2017 13:00 21,5 C 37 % 1016,3 hPa 0,0 l/m S-SW 1,00 h 722 W/m 13,7 km/h (3 Bft)
31.03.2017 14:00 22,2 C 33 % 1015,5 hPa 0,0 l/m S-SW 1,00 h 649 W/m 15,7 km/h (3 Bft)
31.03.2017 15:00 22,5 C 32 % 1014,9 hPa 0,0 l/m SW 1,00 h 533 W/m 16,0 km/h (3 Bft)
31.03.2017 16:00 22,5 C 33 % 1014,0 hPa 0,0 l/m SW 1,00 h 444 W/m 14,1 km/h (3 Bft)
31.03.2017 17:00 22,1 C 31 % 1013,3 hPa 0,0 l/m SW 0,92 h 284 W/m 14,4 km/h (3 Bft)
31.03.2017 18:00 20,7 C 34 % 1013,0 hPa 0,0 l/m W 0,00 h 87 W/m 4,0 km/h (1 Bft)
31.03.2017 19:00 17,7 C 47 % 1012,7 hPa 0,0 l/m N 0,08 h 23 W/m 0,0 km/h (0 Bft)
31.03.2017 20:00 14,4 C 58 % 1012,7 hPa 0,0 l/m N 0,00 h 0 W/m 0,1 km/h (0 Bft)
31.03.2017 21:00 12,5 C 65 % 1012,9 hPa 0,0 l/m N 0,00 h 0 W/m 0,0 km/h (0 Bft)
31.03.2017 22:00 11,0 C 69 % 1012,7 hPa 0,0 l/m W 0,00 h 0 W/m 0,8 km/h (0 Bft)
31.03.2017 23:00 9,7 C 74 % 1012,6 hPa 0,0 l/m N 0,00 h 0 W/m 0,0 km/h (0 Bft)
01.04.2017 00:00 8,7 C 78 % 1012,5 hPa 0,0 l/m W 0,00 h 0 W/m 1,5 km/h (1 Bft)
01.04.2017 01:00 7,6 C 82 % 1012,2 hPa 0,0 l/m N 0,00 h 0 W/m 0,0 km/h (0 Bft)
01.04.2017 02:00 7,0 C 84 % 1011,7 hPa 0,0 l/m N 0,00 h 0 W/m 1,1 km/h (0 Bft)
01.04.2017 03:00 5,9 C 85 % 1011,2 hPa 0,0 l/m N 0,00 h 0 W/m 0,0 km/h (0 Bft)
01.04.2017 04:00 5,2 C 87 % 1010,9 hPa 0,0 l/m W 0,00 h 0 W/m 0,4 km/h (0 Bft)
01.04.2017 05:00 4,7 C 88 % 1010,7 hPa 0,0 l/m N 0,00 h 0 W/m 0,0 km/h (0 Bft)
01.04.2017 06:00 4,0 C 90 % 1010,2 hPa 0,0 l/m N 0,00 h 9 W/m 0,0 km/h (0 Bft)
01.04.2017 07:00 4,5 C 90 % 1009,9 hPa 0,0 l/m N 0,83 h 66 W/m 0,0 km/h (0 Bft)
01.04.2017 08:00 6,9 C 84 % 1009,8 hPa 0,0 l/m N 0,92 h 160 W/m 0,7 km/h (0 Bft)
01.04.2017 09:00 9,1 C 79 % 1009,7 hPa 0,0 l/m N 0,75 h 268 W/m 0,3 km/h (0 Bft)
01.04.2017 10:00 11,1 C 75 % 1009,6 hPa 0,0 l/m W-SW 0,17 h 275 W/m 4,0 km/h (1 Bft)
01.04.2017 11:00 12,8 C 72 % 1009,7 hPa 0,0 l/m S-SW 0,50 h 362 W/m 10,5 km/h (2 Bft)
01.04.2017 12:00 14,0 C 69 % 1009,5 hPa 0,0 l/m S-SW 0,67 h 408 W/m 11,6 km/h (2 Bft)
01.04.2017 13:00 14,0 C 70 % 1009,3 hPa 0,0 l/m S-SW 0,00 h 269 W/m 12,2 km/h (2 Bft)
01.04.2017 14:00 13,7 C 70 % 1008,9 hPa 0,0 l/m S-SW 0,00 h 252 W/m 11,4 km/h (2 Bft)
01.04.2017 15:00 14,6 C 67 % 1008,4 hPa 0,0 l/m S-SW 0,58 h 429 W/m 8,4 km/h (2 Bft)
01.04.2017 16:00 17,7 C 55 % 1007,8 hPa 0,0 l/m SO 1,00 h 453 W/m 5,6 km/h (1 Bft)
01.04.2017 17:00 18,8 C 44 % 1007,6 hPa 0,0 l/m SW 1,00 h 312 W/m 4,4 km/h (1 Bft)
01.04.2017 18:00 18,0 C 46 % 1007,8 hPa 0,0 l/m W-SW 0,42 h 123 W/m 8,6 km/h (2 Bft)
01.04.2017 19:00 15,5 C 60 % 1008,3 hPa 0,0 l/m W-SW 0,00 h 25 W/m 8,5 km/h (2 Bft)
01.04.2017 20:00 13,6 C 64 % 1009,2 hPa 0,0 l/m SW 0,00 h 0 W/m 7,4 km/h (2 Bft)
01.04.2017 21:00 12,5 C 70 % 1010,1 hPa 0,0 l/m SW 0,00 h 0 W/m 0,9 km/h (0 Bft)
01.04.2017 22:00 11,9 C 72 % 1010,7 hPa 0,0 l/m NW 0,00 h 0 W/m 7,3 km/h (2 Bft)
01.04.2017 23:00 11,3 C 75 % 1011,2 hPa 0,0 l/m N-NW 0,00 h 0 W/m 14,6 km/h (3 Bft)
02.04.2017 00:00 9,9 C 79 % 1012,1 hPa 0,0 l/m N-NW 0,00 h 0 W/m 4,8 km/h (1 Bft)
02.04.2017 01:00 8,3 C 83 % 1012,4 hPa 0,0 l/m N 0,00 h 0 W/m 0,0 km/h (0 Bft)
02.04.2017 02:00 7,6 C 86 % 1012,6 hPa 0,0 l/m N 0,00 h 0 W/m 0,0 km/h (0 Bft)
02.04.2017 03:00 7,2 C 87 % 1012,9 hPa 0,0 l/m N 0,00 h 0 W/m 0,0 km/h (0 Bft)
02.04.2017 04:00 6,3 C 90 % 1013,0 hPa 0,0 l/m N 0,00 h 0 W/m 0,0 km/h (0 Bft)
02.04.2017 05:00 6,8 C 91 % 1013,1 hPa 0,0 l/m N 0,00 h 0 W/m 0,0 km/h (0 Bft)
02.04.2017 06:00 7,3 C 90 % 1013,5 hPa 0,0 l/m N 0,00 h 0 W/m 0,0 km/h (0 Bft)
02.04.2017 07:00 8,0 C 86 % 1014,3 hPa 0,0 l/m N-NW 0,00 h 28 W/m 3,3 km/h (1 Bft)
02.04.2017 08:00 8,7 C 84 % 1014,7 hPa 0,0 l/m N 0,25 h 129 W/m 11,8 km/h (2 Bft)
02.04.2017 09:00 9,7 C 82 % 1014,8 hPa 0,0 l/m N-NO 0,75 h 260 W/m 10,7 km/h (2 Bft)
02.04.2017 10:00 11,0 C 77 % 1015,2 hPa 0,0 l/m NO 0,17 h 252 W/m 8,7 km/h (2 Bft)
02.04.2017 11:00 12,0 C 75 % 1015,4 hPa 0,0 l/m NO 0,33 h 315 W/m 13,4 km/h (3 Bft)
02.04.2017 12:00 12,2 C 76 % 1015,5 hPa 0,0 l/m O-NO 0,00 h 282 W/m 15,6 km/h (3 Bft)
02.04.2017 13:00 13,2 C 73 % 1015,3 hPa 0,0 l/m O-NO 0,17 h 376 W/m 13,4 km/h (3 Bft)
02.04.2017 14:00 14,7 C 68 % 1015,0 hPa 0,0 l/m NO 0,50 h 478 W/m 14,0 km/h (3 Bft)
02.04.2017 15:00 15,9 C 64 % 1014,8 hPa 0,0 l/m NO 0,67 h 499 W/m 12,6 km/h (3 Bft)
02.04.2017 16:00 16,5 C 61 % 1014,8 hPa 0,0 l/m O-NO 0,58 h 339 W/m 15,3 km/h (3 Bft)
02.04.2017 17:00 16,8 C 59 % 1015,0 hPa 0,0 l/m NO 0,75 h 237 W/m 15,7 km/h (3 Bft)
02.04.2017 18:00 16,1 C 61 % 1015,5 hPa 0,0 l/m NO 0,17 h 88 W/m 13,6 km/h (3 Bft)
02.04.2017 19:00 14,5 C 68 % 1016,0 hPa 0,0 l/m NO 0,00 h 18 W/m 7,2 km/h (2 Bft)
02.04.2017 20:00 12,5 C 77 % 1017,1 hPa 0,0 l/m NO 0,00 h 0 W/m 8,0 km/h (2 Bft)
02.04.2017 21:00 11,6 C 82 % 1018,0 hPa 0,0 l/m N 0,00 h 0 W/m 11,2 km/h (2 Bft)
02.04.2017 22:00 11,0 C 85 % 1018,7 hPa 0,0 l/m N 0,00 h 0 W/m 10,5 km/h (2 Bft)
02.04.2017 23:00 10,3 C 88 % 1019,2 hPa 0,0 l/m N 0,00 h 0 W/m 7,6 km/h (2 Bft)
Min-Datum _ 28.03.17 31.03.17 01.04.17 - - - - 27.03.17
_ Min-Zeit 07:20 15:00 17:30 - - - - 00:00
Minimum _ -0,4 C 27 % 1007,4 hPa - - - - 0,0 km/h (0 Bft)
Max-Datum _ 31.03.17 31.03.17 29.03.17 27.03.17 - 27.03.17 02.04.17 29.03.17
_ Max-Zeit 15:15 04:05 10:20 00:00 - 07:20 14:10 13:25
Maximum _ 22,9 C 97 % 1026,6 hPa 0,0 l/m - 0,08 h 953 W/m 24,1 km/h
W-SW (4 Bft)
Durchschnitt _ 10,7 C 70 % 1019,1 hPa #0,0 l/m NO #59:10 h 341 W/m 5,5 km/h (1 Bft)